sensor_id;sensor_type;location;lat;lon;timestamp;pressure;altitude;pressure_sealevel;temperature;humidity
61618;BME280;47518;51.776;9.370;2023-04-29T00:00:03;99708.09;;;13.67;94.01
61618;BME280;47518;51.776;9.370;2023-04-29T00:02:35;99706.59;;;13.71;94.01
61618;BME280;47518;51.776;9.370;2023-04-29T00:05:04;99701.78;;;13.67;94.64
61618;BME280;47518;51.776;9.370;2023-04-29T00:07:33;99691.25;;;13.77;93.44
61618;BME280;47518;51.776;9.370;2023-04-29T00:09:58;99692.72;;;13.80;94.04
61618;BME280;47518;51.776;9.370;2023-04-29T00:12:36;99692.72;;;13.80;93.76
61618;BME280;47518;51.776;9.370;2023-04-29T00:15:01;99694.44;;;13.67;93.80
61618;BME280;47518;51.776;9.370;2023-04-29T00:17:27;99697.34;;;13.72;94.65
61618;BME280;47518;51.776;9.370;2023-04-29T00:19:52;99701.75;;;13.73;93.90
61618;BME280;47518;51.776;9.370;2023-04-29T00:22:18;99693.38;;;13.68;94.10
61618;BME280;47518;51.776;9.370;2023-04-29T00:24:46;99692.09;;;13.64;94.63
61618;BME280;47518;51.776;9.370;2023-04-29T00:27:14;99705.13;;;13.62;94.75
61618;BME280;47518;51.776;9.370;2023-04-29T00:29:42;99704.50;;;13.54;94.62
61618;BME280;47518;51.776;9.370;2023-04-29T00:32:08;99710.81;;;13.61;94.66
61618;BME280;47518;51.776;9.370;2023-04-29T00:34:33;99712.50;;;13.55;94.88
61618;BME280;47518;51.776;9.370;2023-04-29T00:36:59;99720.66;;;13.42;94.82
61618;BME280;47518;51.776;9.370;2023-04-29T00:39:24;99716.06;;;13.42;95.69
61618;BME280;47518;51.776;9.370;2023-04-29T00:41:50;99729.31;;;13.46;95.09
61618;BME280;47518;51.776;9.370;2023-04-29T00:44:15;99728.66;;;13.30;95.10
61618;BME280;47518;51.776;9.370;2023-04-29T00:46:41;99730.69;;;13.02;94.78
61618;BME280;47518;51.776;9.370;2023-04-29T00:49:07;99732.66;;;13.21;94.58
61618;BME280;47518;51.776;9.370;2023-04-29T00:51:33;99745.16;;;13.02;94.77
61618;BME280;47518;51.776;9.370;2023-04-29T00:53:59;99742.84;;;12.99;93.90
61618;BME280;47518;51.776;9.370;2023-04-29T00:56:24;99747.69;;;12.97;93.83
61618;BME280;47518;51.776;9.370;2023-04-29T00:58:50;99752.97;;;13.12;93.30
61618;BME280;47518;51.776;9.370;2023-04-29T01:01:17;99752.81;;;13.20;93.12
61618;BME280;47518;51.776;9.370;2023-04-29T01:03:43;99756.56;;;13.19;93.86
61618;BME280;47518;51.776;9.370;2023-04-29T01:12:07;99749.81;;;13.08;92.49
61618;BME280;47518;51.776;9.370;2023-04-29T01:14:38;99761.13;;;13.05;92.54
61618;BME280;47518;51.776;9.370;2023-04-29T01:17:10;99763.03;;;13.11;92.74
61618;BME280;47518;51.776;9.370;2023-04-29T01:22:23;99766.16;;;13.02;93.13
61618;BME280;47518;51.776;9.370;2023-04-29T01:24:54;99766.78;;;12.97;93.34
61618;BME280;47518;51.776;9.370;2023-04-29T01:36:55;99781.25;;;12.98;93.25
61618;BME280;47518;51.776;9.370;2023-04-29T01:52:37;99787.91;;;12.82;91.63
61618;BME280;47518;51.776;9.370;2023-04-29T01:55:06;99793.94;;;12.71;90.84
61618;BME280;47518;51.776;9.370;2023-04-29T01:57:36;99792.69;;;12.73;91.62
61618;BME280;47518;51.776;9.370;2023-04-29T02:00:05;99800.16;;;12.51;91.51
61618;BME280;47518;51.776;9.370;2023-04-29T02:02:32;99804.16;;;12.55;92.60
61618;BME280;47518;51.776;9.370;2023-04-29T02:07:48;99808.34;;;12.58;92.65
61618;BME280;47518;51.776;9.370;2023-04-29T02:10:13;99790.97;;;12.24;93.35
61618;BME280;47518;51.776;9.370;2023-04-29T02:12:39;99803.72;;;12.17;94.34
61618;BME280;47518;51.776;9.370;2023-04-29T02:15:05;99806.88;;;12.21;94.67
61618;BME280;47518;51.776;9.370;2023-04-29T02:17:33;99806.38;;;12.39;93.61
61618;BME280;47518;51.776;9.370;2023-04-29T02:20:01;99815.69;;;12.51;92.48
61618;BME280;47518;51.776;9.370;2023-04-29T02:22:27;99816.19;;;12.33;93.26
61618;BME280;47518;51.776;9.370;2023-04-29T02:24:53;99813.88;;;12.30;93.56
61618;BME280;47518;51.776;9.370;2023-04-29T02:27:18;99820.16;;;12.31;92.79
61618;BME280;47518;51.776;9.370;2023-04-29T02:29:43;99822.59;;;12.53;92.49
61618;BME280;47518;51.776;9.370;2023-04-29T02:32:09;99826.16;;;12.19;93.44
61618;BME280;47518;51.776;9.370;2023-04-29T02:34:34;99825.56;;;12.24;93.14
61618;BME280;47518;51.776;9.370;2023-04-29T02:37:00;99823.84;;;12.16;93.92
61618;BME280;47518;51.776;9.370;2023-04-29T02:39:25;99822.34;;;12.14;92.48
61618;BME280;47518;51.776;9.370;2023-04-29T02:41:53;99821.69;;;12.12;92.88
61618;BME280;47518;51.776;9.370;2023-04-29T02:44:20;99823.00;;;12.16;93.11
61618;BME280;47518;51.776;9.370;2023-04-29T02:46:45;99829.13;;;12.24;92.81
61618;BME280;47518;51.776;9.370;2023-04-29T02:49:12;99836.03;;;12.20;93.30
61618;BME280;47518;51.776;9.370;2023-04-29T02:51:38;99837.19;;;12.05;92.59
61618;BME280;47518;51.776;9.370;2023-04-29T02:54:06;99829.47;;;11.87;93.33
61618;BME280;47518;51.776;9.370;2023-04-29T02:56:32;99834.31;;;11.91;92.84
61618;BME280;47518;51.776;9.370;2023-04-29T02:58:57;99839.19;;;12.24;92.21
61618;BME280;47518;51.776;9.370;2023-04-29T03:01:23;99845.69;;;12.23;92.43
61618;BME280;47518;51.776;9.370;2023-04-29T03:03:48;99835.97;;;12.14;92.44
61618;BME280;47518;51.776;9.370;2023-04-29T03:06:14;99836.50;;;12.03;92.58
61618;BME280;47518;51.776;9.370;2023-04-29T03:08:40;99836.38;;;11.83;92.84
61618;BME280;47518;51.776;9.370;2023-04-29T03:11:05;99833.44;;;11.84;92.96
61618;BME280;47518;51.776;9.370;2023-04-29T03:13:31;99846.06;;;11.71;93.63
61618;BME280;47518;51.776;9.370;2023-04-29T03:15:56;99842.44;;;11.85;93.88
61618;BME280;47518;51.776;9.370;2023-04-29T03:18:23;99831.94;;;11.60;93.39
61618;BME280;47518;51.776;9.370;2023-04-29T03:20:48;99834.97;;;11.72;93.03
61618;BME280;47518;51.776;9.370;2023-04-29T03:23:14;99828.00;;;11.84;93.41
61618;BME280;47518;51.776;9.370;2023-04-29T03:25:40;99832.81;;;11.67;93.81
61618;BME280;47518;51.776;9.370;2023-04-29T03:28:05;99837.75;;;11.79;93.60
61618;BME280;47518;51.776;9.370;2023-04-29T03:30:32;99819.84;;;11.91;93.04
61618;BME280;47518;51.776;9.370;2023-04-29T03:32:57;99828.09;;;11.97;91.88
61618;BME280;47518;51.776;9.370;2023-04-29T03:35:31;99831.13;;;12.09;92.42
61618;BME280;47518;51.776;9.370;2023-04-29T03:38:10;99834.47;;;12.11;92.46
61618;BME280;47518;51.776;9.370;2023-04-29T03:40:36;99839.28;;;11.81;91.07
61618;BME280;47518;51.776;9.370;2023-04-29T03:43:01;99829.69;;;11.85;92.03
61618;BME280;47518;51.776;9.370;2023-04-29T03:45:30;99826.28;;;11.62;91.90
61618;BME280;47518;51.776;9.370;2023-04-29T03:47:59;99832.06;;;11.74;92.00
61618;BME280;47518;51.776;9.370;2023-04-29T03:50:24;99833.16;;;11.79;91.60
61618;BME280;47518;51.776;9.370;2023-04-29T03:52:50;99838.94;;;11.69;91.35
61618;BME280;47518;51.776;9.370;2023-04-29T03:55:16;99842.84;;;11.82;90.93
61618;BME280;47518;51.776;9.370;2023-04-29T03:57:45;99844.34;;;11.84;90.53
61618;BME280;47518;51.776;9.370;2023-04-29T04:00:12;99847.78;;;11.78;90.60
61618;BME280;47518;51.776;9.370;2023-04-29T04:02:46;99851.69;;;11.90;89.96
61618;BME280;47518;51.776;9.370;2023-04-29T04:05:12;99862.13;;;12.08;89.42
61618;BME280;47518;51.776;9.370;2023-04-29T04:07:43;99864.16;;;12.00;90.53
61618;BME280;47518;51.776;9.370;2023-04-29T04:10:08;99872.31;;;12.00;89.88
61618;BME280;47518;51.776;9.370;2023-04-29T04:12:33;99875.66;;;11.95;89.19
61618;BME280;47518;51.776;9.370;2023-04-29T04:14:59;99883.88;;;12.02;90.15
61618;BME280;47518;51.776;9.370;2023-04-29T04:17:24;99882.03;;;12.09;89.58
61618;BME280;47518;51.776;9.370;2023-04-29T04:19:50;99888.63;;;11.93;89.76
61618;BME280;47518;51.776;9.370;2023-04-29T04:22:15;99893.91;;;11.80;89.50
61618;BME280;47518;51.776;9.370;2023-04-29T04:24:42;99892.44;;;11.98;89.91
61618;BME280;47518;51.776;9.370;2023-04-29T04:27:07;99900.16;;;11.95;88.55
61618;BME280;47518;51.776;9.370;2023-04-29T04:29:34;99902.06;;;11.94;89.88
61618;BME280;47518;51.776;9.370;2023-04-29T04:31:59;99906.38;;;11.89;88.60
61618;BME280;47518;51.776;9.370;2023-04-29T04:34:32;99905.41;;;11.96;89.51
61618;BME280;47518;51.776;9.370;2023-04-29T04:37:01;99911.03;;;11.74;89.79
61618;BME280;47518;51.776;9.370;2023-04-29T04:39:27;99916.50;;;11.95;89.81
61618;BME280;47518;51.776;9.370;2023-04-29T04:42:01;99920.75;;;11.61;90.79
61618;BME280;47518;51.776;9.370;2023-04-29T04:44:29;99925.19;;;11.84;90.13
61618;BME280;47518;51.776;9.370;2023-04-29T04:46:55;99923.31;;;11.48;91.98
61618;BME280;47518;51.776;9.370;2023-04-29T04:49:22;99929.94;;;11.60;93.58
61618;BME280;47518;51.776;9.370;2023-04-29T04:51:50;99939.50;;;11.56;92.63
61618;BME280;47518;51.776;9.370;2023-04-29T04:54:15;99938.56;;;11.64;92.45
61618;BME280;47518;51.776;9.370;2023-04-29T04:56:41;99941.09;;;11.65;93.00
61618;BME280;47518;51.776;9.370;2023-04-29T04:59:06;99947.19;;;11.82;92.14
61618;BME280;47518;51.776;9.370;2023-04-29T05:01:41;99943.78;;;11.80;90.83
61618;BME280;47518;51.776;9.370;2023-04-29T05:04:06;99950.88;;;11.96;91.09
61618;BME280;47518;51.776;9.370;2023-04-29T05:06:34;99961.53;;;11.76;91.90
61618;BME280;47518;51.776;9.370;2023-04-29T05:09:00;99970.59;;;11.62;92.15
61618;BME280;47518;51.776;9.370;2023-04-29T05:11:25;99976.94;;;11.84;92.27
61618;BME280;47518;51.776;9.370;2023-04-29T05:13:50;99971.69;;;11.82;91.99
61618;BME280;47518;51.776;9.370;2023-04-29T05:16:16;99977.81;;;11.69;91.72
61618;BME280;47518;51.776;9.370;2023-04-29T05:18:42;99979.84;;;11.67;93.27
61618;BME280;47518;51.776;9.370;2023-04-29T05:21:09;99982.88;;;11.73;92.90
61618;BME280;47518;51.776;9.370;2023-04-29T05:23:35;99979.09;;;11.74;92.94
61618;BME280;47518;51.776;9.370;2023-04-29T05:26:00;99986.22;;;11.75;92.57
61618;BME280;47518;51.776;9.370;2023-04-29T05:28:26;99986.63;;;11.57;93.62
61618;BME280;47518;51.776;9.370;2023-04-29T05:30:52;99982.56;;;11.46;93.76
61618;BME280;47518;51.776;9.370;2023-04-29T05:33:17;99988.59;;;11.27;93.67
61618;BME280;47518;51.776;9.370;2023-04-29T05:35:49;99991.53;;;11.61;93.13
61618;BME280;47518;51.776;9.370;2023-04-29T05:38:14;99995.19;;;11.54;94.03
61618;BME280;47518;51.776;9.370;2023-04-29T05:40:39;99984.50;;;11.52;93.65
61618;BME280;47518;51.776;9.370;2023-04-29T05:43:06;99991.78;;;11.66;94.07
61618;BME280;47518;51.776;9.370;2023-04-29T05:45:31;99990.09;;;11.65;93.41
61618;BME280;47518;51.776;9.370;2023-04-29T05:47:56;99999.31;;;11.64;93.36
61618;BME280;47518;51.776;9.370;2023-04-29T05:50:22;99996.47;;;11.73;91.83
61618;BME280;47518;51.776;9.370;2023-04-29T05:52:50;100007.09;;;11.67;92.68
61618;BME280;47518;51.776;9.370;2023-04-29T05:55:19;100007.22;;;11.59;93.01
61618;BME280;47518;51.776;9.370;2023-04-29T05:57:44;100015.34;;;11.89;92.73
61618;BME280;47518;51.776;9.370;2023-04-29T06:00:10;100008.31;;;11.65;92.01
61618;BME280;47518;51.776;9.370;2023-04-29T06:02:35;100016.69;;;11.63;92.71
61618;BME280;47518;51.776;9.370;2023-04-29T06:05:07;100018.66;;;11.84;92.31
61618;BME280;47518;51.776;9.370;2023-04-29T06:07:33;100029.94;;;11.81;91.74
61618;BME280;47518;51.776;9.370;2023-04-29T06:24:41;100051.06;;;11.05;96.40
61618;BME280;47518;51.776;9.370;2023-04-29T06:27:07;100063.81;;;11.34;97.26
61618;BME280;47518;51.776;9.370;2023-04-29T06:29:32;100068.88;;;11.67;95.05
61618;BME280;47518;51.776;9.370;2023-04-29T06:32:01;100068.22;;;11.65;94.67
61618;BME280;47518;51.776;9.370;2023-04-29T06:34:26;100074.72;;;11.93;93.70
61618;BME280;47518;51.776;9.370;2023-04-29T06:36:54;100070.25;;;12.07;92.36
61618;BME280;47518;51.776;9.370;2023-04-29T06:39:20;100073.38;;;11.75;87.72
61618;BME280;47518;51.776;9.370;2023-04-29T06:41:46;100078.75;;;11.83;88.46
61618;BME280;47518;51.776;9.370;2023-04-29T06:44:11;100072.19;;;12.13;88.51
61618;BME280;47518;51.776;9.370;2023-04-29T06:46:36;100083.22;;;12.26;88.26
61618;BME280;47518;51.776;9.370;2023-04-29T06:49:03;100084.28;;;12.47;88.79
61618;BME280;47518;51.776;9.370;2023-04-29T06:51:35;100102.94;;;12.43;85.48
61618;BME280;47518;51.776;9.370;2023-04-29T06:54:01;100090.72;;;12.03;85.46
61618;BME280;47518;51.776;9.370;2023-04-29T06:56:27;100101.13;;;12.50;85.39
61618;BME280;47518;51.776;9.370;2023-04-29T06:58:52;100104.88;;;12.71;85.91
61618;BME280;47518;51.776;9.370;2023-04-29T07:01:17;100109.44;;;12.64;87.21
61618;BME280;47518;51.776;9.370;2023-04-29T07:03:43;100110.81;;;12.74;84.89
61618;BME280;47518;51.776;9.370;2023-04-29T07:06:11;100116.50;;;12.79;82.87
61618;BME280;47518;51.776;9.370;2023-04-29T07:08:49;100121.84;;;12.88;83.30
61618;BME280;47518;51.776;9.370;2023-04-29T07:11:17;100125.44;;;12.95;83.69
61618;BME280;47518;51.776;9.370;2023-04-29T07:13:43;100129.84;;;13.17;82.80
61618;BME280;47518;51.776;9.370;2023-04-29T07:16:16;100134.78;;;13.07;83.08
61618;BME280;47518;51.776;9.370;2023-04-29T07:18:47;100135.38;;;13.24;82.76
61618;BME280;47518;51.776;9.370;2023-04-29T07:21:16;100140.00;;;13.23;82.54
61618;BME280;47518;51.776;9.370;2023-04-29T07:23:41;100149.34;;;12.93;84.09
61618;BME280;47518;51.776;9.370;2023-04-29T07:26:09;100143.84;;;12.86;84.37
61618;BME280;47518;51.776;9.370;2023-04-29T07:28:35;100161.00;;;12.80;84.16
61618;BME280;47518;51.776;9.370;2023-04-29T07:31:00;100163.78;;;12.65;83.42
61618;BME280;47518;51.776;9.370;2023-04-29T07:33:28;100157.50;;;12.50;81.70
61618;BME280;47518;51.776;9.370;2023-04-29T07:35:55;100152.09;;;12.71;82.91
61618;BME280;47518;51.776;9.370;2023-04-29T07:38:20;100158.78;;;12.90;82.54
61618;BME280;47518;51.776;9.370;2023-04-29T07:40:45;100170.81;;;12.74;81.09
61618;BME280;47518;51.776;9.370;2023-04-29T07:43:11;100174.31;;;12.90;81.34
61618;BME280;47518;51.776;9.370;2023-04-29T07:45:37;100174.50;;;12.88;81.06
61618;BME280;47518;51.776;9.370;2023-04-29T07:48:02;100184.31;;;12.82;81.25
61618;BME280;47518;51.776;9.370;2023-04-29T07:50:28;100190.81;;;12.81;81.17
61618;BME280;47518;51.776;9.370;2023-04-29T07:52:53;100199.19;;;13.01;81.39
61618;BME280;47518;51.776;9.370;2023-04-29T07:55:19;100203.22;;;12.63;80.94
61618;BME280;47518;51.776;9.370;2023-04-29T07:57:44;100208.59;;;12.77;81.84
61618;BME280;47518;51.776;9.370;2023-04-29T08:00:13;100207.34;;;12.59;81.04
61618;BME280;47518;51.776;9.370;2023-04-29T08:02:41;100211.72;;;12.74;81.28
61618;BME280;47518;51.776;9.370;2023-04-29T08:05:09;100220.75;;;12.75;81.71
61618;BME280;47518;51.776;9.370;2023-04-29T08:07:35;100215.94;;;12.77;81.21
61618;BME280;47518;51.776;9.370;2023-04-29T08:10:00;100211.78;;;12.81;81.54
61618;BME280;47518;51.776;9.370;2023-04-29T08:12:26;100227.19;;;12.89;79.81
61618;BME280;47518;51.776;9.370;2023-04-29T08:14:57;100235.66;;;12.57;80.55
61618;BME280;47518;51.776;9.370;2023-04-29T08:17:28;100227.41;;;12.72;79.65
61618;BME280;47518;51.776;9.370;2023-04-29T08:19:56;100235.81;;;12.92;79.01
61618;BME280;47518;51.776;9.370;2023-04-29T08:22:22;100230.16;;;12.94;78.02
61618;BME280;47518;51.776;9.370;2023-04-29T08:24:47;100242.91;;;13.08;78.33
61618;BME280;47518;51.776;9.370;2023-04-29T08:27:13;100248.03;;;12.75;78.64
61618;BME280;47518;51.776;9.370;2023-04-29T08:29:39;100245.66;;;12.87;79.06
61618;BME280;47518;51.776;9.370;2023-04-29T08:32:05;100246.75;;;12.56;79.48
61618;BME280;47518;51.776;9.370;2023-04-29T08:34:30;100247.28;;;12.66;78.82
61618;BME280;47518;51.776;9.370;2023-04-29T08:36:57;100253.09;;;12.78;77.73
61618;BME280;47518;51.776;9.370;2023-04-29T08:39:22;100253.84;;;12.87;77.63
61618;BME280;47518;51.776;9.370;2023-04-29T08:41:48;100264.50;;;12.67;80.66
61618;BME280;47518;51.776;9.370;2023-04-29T08:44:16;100257.41;;;12.87;79.17
61618;BME280;47518;51.776;9.370;2023-04-29T08:46:45;100271.59;;;12.82;77.29
61618;BME280;47518;51.776;9.370;2023-04-29T08:49:11;100271.53;;;12.76;79.78
61618;BME280;47518;51.776;9.370;2023-04-29T08:51:37;100273.53;;;12.67;79.43
61618;BME280;47518;51.776;9.370;2023-04-29T08:54:03;100284.88;;;12.85;78.43
61618;BME280;47518;51.776;9.370;2023-04-29T08:56:30;100296.25;;;12.89;78.03
61618;BME280;47518;51.776;9.370;2023-04-29T08:58:56;100292.94;;;12.94;76.73
61618;BME280;47518;51.776;9.370;2023-04-29T09:01:27;100296.47;;;13.09;76.65
61618;BME280;47518;51.776;9.370;2023-04-29T09:06:49;100294.16;;;13.70;74.00
61618;BME280;47518;51.776;9.370;2023-04-29T09:09:16;100291.28;;;13.78;74.05
61618;BME280;47518;51.776;9.370;2023-04-29T09:11:45;100291.28;;;13.78;75.03
61618;BME280;47518;51.776;9.370;2023-04-29T09:14:11;100300.47;;;13.49;72.23
61618;BME280;47518;51.776;9.370;2023-04-29T09:16:39;100294.81;;;13.29;73.06
61618;BME280;47518;51.776;9.370;2023-04-29T09:19:04;100308.03;;;13.68;74.53
61618;BME280;47518;51.776;9.370;2023-04-29T09:21:30;100306.34;;;13.67;73.79
61618;BME280;47518;51.776;9.370;2023-04-29T09:23:59;100315.09;;;13.63;71.66
61618;BME280;47518;51.776;9.370;2023-04-29T09:26:25;100318.09;;;13.68;72.28
61618;BME280;47518;51.776;9.370;2023-04-29T09:29:09;100307.38;;;13.94;68.75
61618;BME280;47518;51.776;9.370;2023-04-29T09:31:36;100322.50;;;13.90;70.40
61618;BME280;47518;51.776;9.370;2023-04-29T09:34:03;100325.84;;;14.20;68.40
61618;BME280;47518;51.776;9.370;2023-04-29T09:36:40;100312.75;;;14.09;65.83
61618;BME280;47518;51.776;9.370;2023-04-29T09:39:07;100323.66;;;14.37;66.31
61618;BME280;47518;51.776;9.370;2023-04-29T09:44:27;100316.78;;;14.13;64.66
61618;BME280;47518;51.776;9.370;2023-04-29T09:52:15;100317.81;;;14.81;63.81
61618;BME280;47518;51.776;9.370;2023-04-29T09:54:43;100332.91;;;15.18;62.62
61618;BME280;47518;51.776;9.370;2023-04-29T09:57:12;100331.84;;;15.26;62.70
61618;BME280;47518;51.776;9.370;2023-04-29T09:59:40;100331.28;;;15.51;60.63
61618;BME280;47518;51.776;9.370;2023-04-29T10:02:12;100340.31;;;15.38;59.51
61618;BME280;47518;51.776;9.370;2023-04-29T10:04:40;100337.47;;;15.79;59.63
61618;BME280;47518;51.776;9.370;2023-04-29T10:07:07;100340.78;;;16.41;59.57
61618;BME280;47518;51.776;9.370;2023-04-29T10:09:35;100329.66;;;16.09;58.04
61618;BME280;47518;51.776;9.370;2023-04-29T10:12:04;100333.06;;;15.98;57.87
61618;BME280;47518;51.776;9.370;2023-04-29T10:17:25;100343.09;;;15.58;58.11
61618;BME280;47518;51.776;9.370;2023-04-29T10:20:03;100343.69;;;15.33;59.91
61618;BME280;47518;51.776;9.370;2023-04-29T10:22:36;100335.28;;;15.48;59.97
61618;BME280;47518;51.776;9.370;2023-04-29T10:25:05;100349.72;;;15.09;60.31
61618;BME280;47518;51.776;9.370;2023-04-29T10:27:38;100344.16;;;14.89;60.78
61618;BME280;47518;51.776;9.370;2023-04-29T10:30:08;100351.84;;;15.07;61.47
61618;BME280;47518;51.776;9.370;2023-04-29T10:32:37;100348.13;;;15.34;62.33
61618;BME280;47518;51.776;9.370;2023-04-29T10:35:06;100355.00;;;15.10;60.66
61618;BME280;47518;51.776;9.370;2023-04-29T10:37:34;100358.72;;;14.96;60.90
61618;BME280;47518;51.776;9.370;2023-04-29T10:40:09;100354.53;;;14.94;60.28
61618;BME280;47518;51.776;9.370;2023-04-29T10:42:43;100351.63;;;14.67;59.82
61618;BME280;47518;51.776;9.370;2023-04-29T10:45:26;100359.56;;;14.97;60.06
61618;BME280;47518;51.776;9.370;2023-04-29T10:48:07;100353.94;;;14.64;58.73
61618;BME280;47518;51.776;9.370;2023-04-29T10:53:11;100356.63;;;14.98;59.49
61618;BME280;47518;51.776;9.370;2023-04-29T10:55:39;100361.09;;;15.12;57.84
61618;BME280;47518;51.776;9.370;2023-04-29T10:58:32;100361.63;;;15.49;58.52
61618;BME280;47518;51.776;9.370;2023-04-29T11:00:53;100363.28;;;15.37;57.30
61618;BME280;47518;51.776;9.370;2023-04-29T11:03:44;100368.16;;;15.41;56.65
61618;BME280;47518;51.776;9.370;2023-04-29T11:06:13;100371.84;;;15.07;57.66
61618;BME280;47518;51.776;9.370;2023-04-29T11:08:42;100372.44;;;15.03;58.12
61618;BME280;47518;51.776;9.370;2023-04-29T11:11:08;100373.84;;;14.92;58.69
61618;BME280;47518;51.776;9.370;2023-04-29T11:13:38;100375.75;;;14.50;59.84
61618;BME280;47518;51.776;9.370;2023-04-29T11:16:05;100381.31;;;14.64;60.89
61618;BME280;47518;51.776;9.370;2023-04-29T11:18:31;100379.97;;;14.53;61.06
61618;BME280;47518;51.776;9.370;2023-04-29T11:21:10;100385.84;;;14.50;59.77
61618;BME280;47518;51.776;9.370;2023-04-29T11:23:40;100383.13;;;14.56;61.61
61618;BME280;47518;51.776;9.370;2023-04-29T11:26:08;100384.75;;;14.23;60.88
61618;BME280;47518;51.776;9.370;2023-04-29T11:28:36;100383.00;;;14.37;60.93
61618;BME280;47518;51.776;9.370;2023-04-29T11:31:03;100386.22;;;14.47;60.31
61618;BME280;47518;51.776;9.370;2023-04-29T11:33:31;100388.06;;;14.40;60.04
61618;BME280;47518;51.776;9.370;2023-04-29T11:36:00;100388.47;;;14.37;60.08
61618;BME280;47518;51.776;9.370;2023-04-29T11:38:29;100397.59;;;14.22;60.41
61618;BME280;47518;51.776;9.370;2023-04-29T11:40:57;100401.13;;;14.16;60.09
61618;BME280;47518;51.776;9.370;2023-04-29T11:43:24;100399.75;;;14.27;62.67
61618;BME280;47518;51.776;9.370;2023-04-29T11:45:51;100404.50;;;14.18;61.68
61618;BME280;47518;51.776;9.370;2023-04-29T11:48:21;100414.00;;;14.22;61.96
61618;BME280;47518;51.776;9.370;2023-04-29T11:50:50;100415.88;;;14.22;61.84
61618;BME280;47518;51.776;9.370;2023-04-29T11:53:15;100415.03;;;14.21;61.71
61618;BME280;47518;51.776;9.370;2023-04-29T11:55:46;100417.03;;;14.34;62.49
61618;BME280;47518;51.776;9.370;2023-04-29T11:58:13;100422.09;;;14.09;63.14
61618;BME280;47518;51.776;9.370;2023-04-29T12:00:39;100425.09;;;13.93;62.74
61618;BME280;47518;51.776;9.370;2023-04-29T12:05:51;100442.03;;;14.03;62.74
61618;BME280;47518;51.776;9.370;2023-04-29T12:08:25;100429.72;;;14.14;64.39
61618;BME280;47518;51.776;9.370;2023-04-29T12:10:53;100438.88;;;14.06;63.06
61618;BME280;47518;51.776;9.370;2023-04-29T12:13:21;100433.31;;;13.93;64.71
61618;BME280;47518;51.776;9.370;2023-04-29T12:15:49;100439.84;;;13.77;62.36
61618;BME280;47518;51.776;9.370;2023-04-29T12:18:16;100441.28;;;13.73;62.66
61618;BME280;47518;51.776;9.370;2023-04-29T12:20:44;100445.09;;;13.93;63.38
61618;BME280;47518;51.776;9.370;2023-04-29T12:23:13;100436.53;;;13.60;64.12
61618;BME280;47518;51.776;9.370;2023-04-29T12:25:40;100442.72;;;13.69;62.86
61618;BME280;47518;51.776;9.370;2023-04-29T12:28:14;100442.00;;;13.60;62.62
61618;BME280;47518;51.776;9.370;2023-04-29T12:30:39;100446.69;;;13.88;63.68
61618;BME280;47518;51.776;9.370;2023-04-29T12:33:17;100445.00;;;14.08;63.06
61618;BME280;47518;51.776;9.370;2023-04-29T12:35:54;100448.38;;;14.10;63.26
61618;BME280;47518;51.776;9.370;2023-04-29T12:38:23;100449.78;;;13.78;61.73
61618;BME280;47518;51.776;9.370;2023-04-29T12:40:48;100451.06;;;14.04;62.89
61618;BME280;47518;51.776;9.370;2023-04-29T12:43:15;100452.28;;;14.22;60.88
61618;BME280;47518;51.776;9.370;2023-04-29T12:45:41;100450.31;;;14.38;61.31
61618;BME280;47518;51.776;9.370;2023-04-29T12:48:06;100452.84;;;14.61;62.50
61618;BME280;47518;51.776;9.370;2023-04-29T12:50:34;100453.69;;;14.61;60.94
61618;BME280;47518;51.776;9.370;2023-04-29T12:53:01;100456.03;;;14.64;60.39
61618;BME280;47518;51.776;9.370;2023-04-29T12:55:27;100448.88;;;14.70;60.79
61618;BME280;47518;51.776;9.370;2023-04-29T12:57:53;100447.91;;;14.49;63.72
61618;BME280;47518;51.776;9.370;2023-04-29T13:00:18;100456.75;;;14.79;63.06
61618;BME280;47518;51.776;9.370;2023-04-29T13:02:45;100449.88;;;14.90;62.09
61618;BME280;47518;51.776;9.370;2023-04-29T13:05:41;100445.41;;;15.24;61.42
61618;BME280;47518;51.776;9.370;2023-04-29T13:08:06;100453.56;;;15.58;60.01
61618;BME280;47518;51.776;9.370;2023-04-29T13:10:33;100455.78;;;15.28;58.01
61618;BME280;47518;51.776;9.370;2023-04-29T13:12:59;100453.03;;;15.35;58.43
61618;BME280;47518;51.776;9.370;2023-04-29T13:15:25;100445.94;;;15.47;59.45
61618;BME280;47518;51.776;9.370;2023-04-29T13:17:51;100459.78;;;15.39;59.23
61618;BME280;47518;51.776;9.370;2023-04-29T13:20:16;100456.94;;;15.06;59.80
61618;BME280;47518;51.776;9.370;2023-04-29T13:22:42;100464.38;;;14.84;62.31
61618;BME280;47518;51.776;9.370;2023-04-29T13:25:09;100466.41;;;14.75;62.15
61618;BME280;47518;51.776;9.370;2023-04-29T13:27:36;100465.56;;;14.47;62.31
61618;BME280;47518;51.776;9.370;2023-04-29T13:30:01;100471.63;;;14.21;62.31
61618;BME280;47518;51.776;9.370;2023-04-29T13:32:26;100476.38;;;14.12;63.53
61618;BME280;47518;51.776;9.370;2023-04-29T13:34:52;100465.38;;;14.27;63.90
61618;BME280;47518;51.776;9.370;2023-04-29T13:37:17;100477.47;;;14.18;61.48
61618;BME280;47518;51.776;9.370;2023-04-29T13:39:44;100479.44;;;14.24;62.35
61618;BME280;47518;51.776;9.370;2023-04-29T13:42:09;100480.03;;;14.19;62.10
61618;BME280;47518;51.776;9.370;2023-04-29T13:44:35;100482.63;;;14.27;63.42
61618;BME280;47518;51.776;9.370;2023-04-29T13:47:01;100484.97;;;14.09;63.43
61618;BME280;47518;51.776;9.370;2023-04-29T13:49:27;100485.78;;;13.88;61.33
61618;BME280;47518;51.776;9.370;2023-04-29T13:51:52;100489.34;;;14.04;62.74
61618;BME280;47518;51.776;9.370;2023-04-29T13:54:17;100487.78;;;14.16;61.70
61618;BME280;47518;51.776;9.370;2023-04-29T13:56:47;100491.56;;;14.15;63.00
61618;BME280;47518;51.776;9.370;2023-04-29T13:59:13;100490.63;;;14.08;61.78
61618;BME280;47518;51.776;9.370;2023-04-29T14:01:38;100491.22;;;14.24;62.09
61618;BME280;47518;51.776;9.370;2023-04-29T14:04:03;100492.84;;;14.40;61.80